Time;durP1;ratioP1;P1;durP2;ratioP2;P2;SDS_P1;SDS_P2;PMS_P1;PMS_P2;Temp;Humidity;BMP_temperature;BMP_pressure;BME280_temperature;BME280_humidity;BME280_pressure;Samples;Min_cycle;Max_cycle;Signal;HPM_P1;HPM_P2
2021/06/12 00:01:13;;;;;;;5.87;5.40;;;;;;;;;;4991401;28;20632;-85
2021/06/12 00:03:38;;;;;;;5.97;5.15;;;;;;;;;;5006232;28;20203;-83
2021/06/12 00:06:05;;;;;;;5.82;5.22;;;;;;;;;;5006318;28;20199;-85
2021/06/12 00:08:30;;;;;;;5.90;5.30;;;;;;;;;;5003238;28;20636;-85
2021/06/12 00:10:55;;;;;;;5.70;5.20;;;;;;;;;;5008570;28;20262;-85
2021/06/12 00:13:21;;;;;;;8.17;5.60;;;;;;;;;;5005737;28;20211;-85
2021/06/12 00:15:48;;;;;;;5.53;5.03;;;;;;;;;;5005849;28;20201;-83
2021/06/12 00:18:17;;;;;;;5.83;5.07;;;;;;;;;;5000817;28;20207;-83
2021/06/12 00:20:42;;;;;;;5.67;5.13;;;;;;;;;;5000216;28;20707;-86
2021/06/12 00:23:08;;;;;;;6.50;5.90;;;;;;;;;;5009438;28;20219;-84
2021/06/12 00:25:34;;;;;;;6.97;5.63;;;;;;;;;;5008062;28;20252;-83
2021/06/12 00:28:01;;;;;;;5.73;5.30;;;;;;;;;;5007596;28;20675;-83
2021/06/12 00:30:28;;;;;;;6.73;5.37;;;;;;;;;;5008602;28;20190;-83
2021/06/12 00:32:56;;;;;;;5.90;5.18;;;;;;;;;;5008010;28;20268;-83
2021/06/12 00:35:22;;;;;;;9.10;5.97;;;;;;;;;;5007806;28;20194;-83
2021/06/12 00:37:48;;;;;;;7.93;5.73;;;;;;;;;;5000406;28;20192;-84
2021/06/12 00:40:15;;;;;;;5.43;4.75;;;;;;;;;;5005348;28;20260;-83
2021/06/12 00:42:42;;;;;;;6.68;4.25;;;;;;;;;;4986134;28;20586;-84
2021/06/12 00:45:10;;;;;;;4.90;4.50;;;;;;;;;;5009229;28;20190;-84
2021/06/12 00:47:35;;;;;;;6.20;5.22;;;;;;;;;;5007773;28;20195;-84
2021/06/12 00:50:01;;;;;;;6.03;5.05;;;;;;;;;;5006765;28;20198;-84
2021/06/12 00:52:26;;;;;;;6.05;5.45;;;;;;;;;;5004584;28;20250;-83
2021/06/12 00:54:54;;;;;;;6.78;5.53;;;;;;;;;;5007240;28;20209;-83
2021/06/12 00:57:20;;;;;;;6.65;5.45;;;;;;;;;;5008842;28;21076;-83
2021/06/12 00:59:46;;;;;;;7.23;5.10;;;;;;;;;;5007479;28;20195;-83
2021/06/12 01:02:11;;;;;;;5.85;4.82;;;;;;;;;;5005826;28;20237;-85
2021/06/12 01:04:38;;;;;;;6.57;5.40;;;;;;;;;;5006375;28;20253;-84
2021/06/12 01:07:04;;;;;;;9.05;5.40;;;;;;;;;;5001965;28;20262;-83
2021/06/12 01:09:29;;;;;;;8.10;5.22;;;;;;;;;;5008813;28;20286;-84
2021/06/12 01:12:21;;;;;;;7.40;5.45;;;;;;;;;;5007858;28;20209;-84
2021/06/12 01:14:53;;;;;;;7.95;6.20;;;;;;;;;;4999846;28;20246;-84
2021/06/12 01:17:33;;;;;;;6.63;5.93;;;;;;;;;;5006551;28;20762;-84
2021/06/12 01:20:04;;;;;;;6.47;5.50;;;;;;;;;;5006403;28;20234;-83
2021/06/12 01:22:54;;;;;;;6.53;5.78;;;;;;;;;;5006876;28;20221;-85
2021/06/12 01:25:46;;;;;;;7.63;5.70;;;;;;;;;;5007934;28;20195;-84
2021/06/12 01:28:48;;;;;;;10.63;6.15;;;;;;;;;;5008490;28;20785;-84
2021/06/12 01:31:14;;;;;;;7.25;5.97;;;;;;;;;;5006793;28;20194;-84
2021/06/12 01:33:42;;;;;;;8.43;6.28;;;;;;;;;;5008160;28;20613;-84
2021/06/12 01:36:08;;;;;;;7.07;5.68;;;;;;;;;;5006633;28;20718;-84
2021/06/12 01:38:38;;;;;;;8.00;6.18;;;;;;;;;;5008144;28;20218;-83
2021/06/12 01:41:07;;;;;;;7.50;6.35;;;;;;;;;;5000596;28;20297;-83
2021/06/12 01:43:34;;;;;;;10.02;6.53;;;;;;;;;;5005680;28;20238;-83
2021/06/12 01:46:01;;;;;;;7.55;6.28;;;;;;;;;;5007580;28;20191;-83
2021/06/12 01:48:28;;;;;;;7.00;6.30;;;;;;;;;;5006256;28;20194;-84
2021/06/12 01:50:57;;;;;;;6.90;6.20;;;;;;;;;;5005644;28;20191;-84
2021/06/12 01:53:30;;;;;;;7.78;6.72;;;;;;;;;;5007685;28;20250;-85
2021/06/12 01:55:58;;;;;;;8.40;6.90;;;;;;;;;;5008286;28;20199;-84
2021/06/12 01:58:24;;;;;;;8.68;6.05;;;;;;;;;;5011163;28;20195;-84
2021/06/12 02:00:51;;;;;;;9.68;6.50;;;;;;;;;;5010903;28;20211;-83
2021/06/12 02:03:20;;;;;;;9.50;6.35;;;;;;;;;;5010340;28;20676;-85
2021/06/12 02:05:47;;;;;;;7.45;5.80;;;;;;;;;;5011044;28;20539;-84
2021/06/12 02:08:15;;;;;;;10.60;6.07;;;;;;;;;;5001465;28;20200;-83
2021/06/12 02:10:42;;;;;;;9.15;6.25;;;;;;;;;;5011992;28;20245;-83
2021/06/12 02:13:09;;;;;;;8.48;6.28;;;;;;;;;;5010201;28;20671;-84
2021/06/12 02:15:36;;;;;;;8.80;6.68;;;;;;;;;;5009519;28;20183;-84
2021/06/12 02:18:08;;;;;;;8.25;6.75;;;;;;;;;;4994154;28;20191;-84
2021/06/12 02:20:37;;;;;;;7.35;6.65;;;;;;;;;;4991768;28;20706;-84
2021/06/12 02:23:07;;;;;;;7.00;6.32;;;;;;;;;;5009885;28;20350;-84
2021/06/12 02:25:32;;;;;;;7.63;6.60;;;;;;;;;;5010476;28;20199;-83
2021/06/12 02:28:02;;;;;;;7.93;6.53;;;;;;;;;;5011515;28;20198;-83
2021/06/12 02:30:30;;;;;;;9.07;6.95;;;;;;;;;;5007983;28;20180;-82
2021/06/12 02:32:59;;;;;;;7.65;6.88;;;;;;;;;;4993140;28;20267;-82
2021/06/12 02:35:25;;;;;;;7.10;6.53;;;;;;;;;;5001549;28;20195;-82
2021/06/12 02:37:50;;;;;;;10.75;7.13;;;;;;;;;;4992911;28;20273;-82
2021/06/12 02:40:16;;;;;;;10.30;6.60;;;;;;;;;;5005036;28;20574;-81
2021/06/12 02:42:41;;;;;;;8.73;6.72;;;;;;;;;;4989854;28;20202;-82
2021/06/12 02:45:09;;;;;;;7.05;6.45;;;;;;;;;;5007707;28;20195;-82
2021/06/12 02:47:38;;;;;;;7.43;6.53;;;;;;;;;;5004873;28;20214;-83
2021/06/12 02:50:05;;;;;;;7.60;6.88;;;;;;;;;;5005993;28;20257;-83
2021/06/12 02:52:32;;;;;;;8.02;6.93;;;;;;;;;;5008733;28;20215;-81
2021/06/12 02:55:04;;;;;;;8.75;7.22;;;;;;;;;;5009617;28;20811;-83
2021/06/12 02:57:30;;;;;;;9.13;6.72;;;;;;;;;;5009239;28;20203;-82
2021/06/12 02:59:57;;;;;;;8.32;6.90;;;;;;;;;;5006966;28;20207;-81
2021/06/12 03:02:24;;;;;;;7.13;6.43;;;;;;;;;;5009868;28;20207;-81
2021/06/12 03:04:51;;;;;;;8.05;6.93;;;;;;;;;;5010618;28;20678;-82
2021/06/12 03:07:18;;;;;;;8.98;6.65;;;;;;;;;;5007605;28;20195;-83
2021/06/12 03:09:44;;;;;;;7.68;6.38;;;;;;;;;;5009164;28;20190;-83
2021/06/12 03:12:11;;;;;;;8.30;6.70;;;;;;;;;;4991928;28;20215;-83
2021/06/12 03:14:37;;;;;;;8.15;6.25;;;;;;;;;;5010775;28;20240;-84
2021/06/12 03:17:05;;;;;;;10.55;7.30;;;;;;;;;;5008499;28;20567;-84
2021/06/12 03:19:31;;;;;;;6.68;6.07;;;;;;;;;;4988907;28;20220;-84
2021/06/12 03:21:59;;;;;;;9.05;7.03;;;;;;;;;;5008509;28;20234;-83
2021/06/12 03:24:27;;;;;;;10.35;6.65;;;;;;;;;;5005315;28;20198;-83
2021/06/12 03:26:58;;;;;;;7.82;6.82;;;;;;;;;;5007483;28;20186;-83
2021/06/12 03:29:23;;;;;;;10.68;7.25;;;;;;;;;;5009662;28;20196;-84
2021/06/12 03:31:49;;;;;;;7.93;7.07;;;;;;;;;;5009192;28;20221;-82
2021/06/12 03:34:15;;;;;;;8.48;7.63;;;;;;;;;;4990470;28;20188;-83
2021/06/12 03:36:41;;;;;;;9.88;7.60;;;;;;;;;;5009322;28;20194;-82
2021/06/12 03:39:08;;;;;;;8.32;7.03;;;;;;;;;;4993066;28;20179;-82
2021/06/12 03:41:33;;;;;;;8.38;7.13;;;;;;;;;;5009372;28;20326;-83
2021/06/12 03:44:01;;;;;;;9.73;7.22;;;;;;;;;;5008653;28;20215;-84
2021/06/12 03:46:27;;;;;;;8.90;6.72;;;;;;;;;;5008224;28;20198;-83
2021/06/12 03:48:54;;;;;;;9.43;7.38;;;;;;;;;;5010593;28;20203;-83
2021/06/12 03:51:21;;;;;;;11.50;7.97;;;;;;;;;;5008099;28;20187;-83
2021/06/12 03:53:47;;;;;;;8.63;7.40;;;;;;;;;;5007362;28;20187;-83
2021/06/12 03:56:20;;;;;;;9.07;8.02;;;;;;;;;;5007301;28;20183;-82
2021/06/12 03:58:47;;;;;;;8.93;7.28;;;;;;;;;;5009708;28;20226;-83
2021/06/12 04:01:14;;;;;;;8.48;7.60;;;;;;;;;;5004256;28;20207;-84
2021/06/12 04:03:43;;;;;;;9.25;7.72;;;;;;;;;;5009748;28;20607;-83
2021/06/12 04:06:09;;;;;;;9.45;8.45;;;;;;;;;;5008995;28;20206;-83
2021/06/12 04:08:34;;;;;;;9.57;8.57;;;;;;;;;;5008758;28;20188;-84
2021/06/12 04:11:00;;;;;;;9.55;8.30;;;;;;;;;;5007867;28;20201;-84
2021/06/12 04:13:26;;;;;;;9.23;8.13;;;;;;;;;;5009640;28;20238;-84
2021/06/12 04:15:51;;;;;;;9.75;8.52;;;;;;;;;;5009230;28;20218;-83
2021/06/12 04:18:17;;;;;;;10.23;9.23;;;;;;;;;;5008938;28;20226;-85
2021/06/12 04:20:42;;;;;;;10.38;9.05;;;;;;;;;;5009171;28;20426;-84
2021/06/12 04:23:10;;;;;;;9.10;8.18;;;;;;;;;;5008224;28;20214;-83
2021/06/12 04:25:36;;;;;;;10.05;9.05;;;;;;;;;;5003020;28;20201;-84
2021/06/12 04:28:02;;;;;;;9.85;8.68;;;;;;;;;;5009149;28;20217;-83
2021/06/12 04:30:27;;;;;;;10.27;8.95;;;;;;;;;;5005284;28;20188;-83
2021/06/12 04:32:52;;;;;;;10.63;8.88;;;;;;;;;;5007007;28;20214;-83
2021/06/12 04:35:20;;;;;;;9.63;8.73;;;;;;;;;;5009012;28;20183;-84
2021/06/12 04:37:46;;;;;;;10.15;8.73;;;;;;;;;;5003853;28;20270;-84
2021/06/12 04:40:12;;;;;;;9.82;8.70;;;;;;;;;;5003374;28;20294;-84
2021/06/12 04:42:37;;;;;;;10.23;9.23;;;;;;;;;;5007331;28;20226;-84
2021/06/12 04:45:05;;;;;;;10.60;9.50;;;;;;;;;;5008861;28;20214;-84
2021/06/12 04:47:33;;;;;;;11.52;9.13;;;;;;;;;;5008726;28;20183;-84
2021/06/12 04:49:58;;;;;;;10.90;9.13;;;;;;;;;;4999523;28;20183;-84
2021/06/12 04:52:24;;;;;;;11.68;10.35;;;;;;;;;;5003391;28;20211;-84
2021/06/12 04:54:50;;;;;;;10.68;9.68;;;;;;;;;;5006398;28;20739;-83
2021/06/12 04:57:15;;;;;;;10.98;9.85;;;;;;;;;;5008689;28;20593;-83
2021/06/12 04:59:41;;;;;;;10.88;9.77;;;;;;;;;;5003818;28;20202;-83
2021/06/12 05:02:06;;;;;;;10.73;9.63;;;;;;;;;;5007591;28;20697;-84
2021/06/12 05:04:31;;;;;;;17.15;10.63;;;;;;;;;;5007908;28;20199;-84
2021/06/12 05:06:57;;;;;;;11.57;10.38;;;;;;;;;;5007293;28;20194;-83
2021/06/12 05:09:22;;;;;;;11.88;10.07;;;;;;;;;;4999834;28;20180;-84
2021/06/12 05:11:50;;;;;;;13.85;9.55;;;;;;;;;;5008438;28;20211;-84
2021/06/12 05:14:16;;;;;;;12.40;9.63;;;;;;;;;;5007810;28;20215;-83
2021/06/12 05:16:41;;;;;;;11.38;10.27;;;;;;;;;;5008274;28;20702;-83
2021/06/12 05:19:07;;;;;;;12.25;9.98;;;;;;;;;;5008813;28;20549;-83
2021/06/12 05:21:36;;;;;;;10.80;9.70;;;;;;;;;;5003798;28;20301;-83
2021/06/12 05:24:01;;;;;;;10.52;9.45;;;;;;;;;;5007593;28;20279;-84
2021/06/12 05:26:27;;;;;;;12.73;9.70;;;;;;;;;;5004475;28;20285;-83
2021/06/12 05:28:52;;;;;;;10.63;9.52;;;;;;;;;;5009301;28;20199;-84
2021/06/12 05:31:20;;;;;;;11.10;9.90;;;;;;;;;;5002419;28;20190;-83
2021/06/12 05:33:45;;;;;;;11.65;9.77;;;;;;;;;;5012374;28;20192;-83
2021/06/12 05:36:10;;;;;;;10.32;9.23;;;;;;;;;;5007467;28;20275;-84
2021/06/12 05:38:36;;;;;;;10.07;8.95;;;;;;;;;;5010001;28;20183;-83
2021/06/12 05:41:01;;;;;;;13.25;9.77;;;;;;;;;;5005988;28;20203;-84
2021/06/12 05:43:30;;;;;;;13.57;9.43;;;;;;;;;;5011988;28;20222;-84
2021/06/12 05:45:55;;;;;;;11.88;9.50;;;;;;;;;;5012090;28;20322;-84
2021/06/12 05:48:20;;;;;;;11.68;8.90;;;;;;;;;;5011926;28;20266;-83
2021/06/12 05:50:45;;;;;;;11.18;10.00;;;;;;;;;;5010785;28;20682;-84
2021/06/12 05:53:11;;;;;;;11.38;9.35;;;;;;;;;;5010851;28;20261;-84
2021/06/12 05:55:36;;;;;;;12.57;10.85;;;;;;;;;;5010077;28;20187;-83
2021/06/12 05:58:02;;;;;;;12.65;11.38;;;;;;;;;;5012038;28;20195;-82
2021/06/12 06:00:28;;;;;;;14.25;11.93;;;;;;;;;;5011540;28;20207;-83
2021/06/12 06:02:53;;;;;;;12.63;11.25;;;;;;;;;;5011054;28;20671;-83
2021/06/12 06:05:18;;;;;;;11.55;10.32;;;;;;;;;;5011571;28;20299;-84
2021/06/12 06:07:44;;;;;;;12.35;9.88;;;;;;;;;;5011608;28;20191;-84
2021/06/12 06:10:10;;;;;;;11.50;9.98;;;;;;;;;;5010418;28;20198;-84
2021/06/12 06:12:36;;;;;;;11.07;9.70;;;;;;;;;;5010612;28;20298;-83
2021/06/12 06:15:02;;;;;;;10.60;9.50;;;;;;;;;;4992981;28;20638;-84
2021/06/12 06:17:27;;;;;;;9.63;8.60;;;;;;;;;;5011066;28;20214;-83
2021/06/12 06:19:53;;;;;;;10.18;9.15;;;;;;;;;;5011084;28;20226;-83
2021/06/12 06:22:18;;;;;;;10.38;8.90;;;;;;;;;;5008374;28;20769;-83
2021/06/12 06:24:46;;;;;;;11.35;9.73;;;;;;;;;;5010031;28;20234;-84
2021/06/12 06:27:11;;;;;;;11.20;9.70;;;;;;;;;;5011407;28;20226;-84
2021/06/12 06:29:36;;;;;;;11.48;10.25;;;;;;;;;;5008611;28;20592;-84
2021/06/12 06:32:02;;;;;;;13.70;10.60;;;;;;;;;;5010537;28;20208;-84
2021/06/12 06:34:27;;;;;;;11.40;10.30;;;;;;;;;;5008798;28;20191;-84
2021/06/12 06:36:52;;;;;;;13.38;10.90;;;;;;;;;;5010992;28;20191;-83
2021/06/12 06:39:18;;;;;;;12.05;10.55;;;;;;;;;;5010559;28;20563;-83
2021/06/12 06:41:43;;;;;;;11.50;9.95;;;;;;;;;;5010539;28;20256;-82
2021/06/12 06:44:08;;;;;;;12.68;10.43;;;;;;;;;;5006915;28;20179;-82
2021/06/12 06:46:33;;;;;;;14.18;9.88;;;;;;;;;;5011591;28;20663;-82
2021/06/12 06:48:59;;;;;;;10.80;9.60;;;;;;;;;;5010765;28;20191;-82
2021/06/12 06:51:24;;;;;;;12.15;10.38;;;;;;;;;;5009530;28;20198;-83
2021/06/12 06:53:49;;;;;;;13.02;9.85;;;;;;;;;;5007904;28;20716;-82
2021/06/12 06:56:15;;;;;;;12.80;11.18;;;;;;;;;;5009077;28;20648;-82
2021/06/12 06:58:40;;;;;;;12.60;10.38;;;;;;;;;;5010516;28;20698;-82
2021/06/12 07:01:10;;;;;;;12.98;10.63;;;;;;;;;;5011243;28;20215;-82
2021/06/12 07:03:38;;;;;;;13.15;11.35;;;;;;;;;;5010128;28;20285;-83
2021/06/12 07:06:04;;;;;;;12.73;9.80;;;;;;;;;;5009221;28;20183;-83
2021/06/12 07:08:29;;;;;;;16.98;10.52;;;;;;;;;;5003958;28;20217;-83
2021/06/12 07:10:54;;;;;;;12.15;10.85;;;;;;;;;;5008453;28;20184;-82
2021/06/12 07:13:21;;;;;;;13.57;10.52;;;;;;;;;;5009075;28;20281;-84
2021/06/12 07:15:47;;;;;;;14.38;10.63;;;;;;;;;;5010424;28;20278;-83
2021/06/12 07:18:13;;;;;;;13.02;10.50;;;;;;;;;;5009726;28;20271;-83
2021/06/12 07:20:38;;;;;;;13.48;12.02;;;;;;;;;;5008321;28;20690;-83
2021/06/12 07:23:03;;;;;;;13.50;12.00;;;;;;;;;;5009288;28;20313;-82
2021/06/12 07:25:31;;;;;;;12.68;10.55;;;;;;;;;;5010047;28;20187;-83
2021/06/12 07:27:56;;;;;;;14.20;11.77;;;;;;;;;;5009454;28;20194;-81
2021/06/12 07:30:22;;;;;;;15.93;11.05;;;;;;;;;;5009271;28;20176;-88
2021/06/12 07:32:47;;;;;;;13.40;10.32;;;;;;;;;;5009177;28;20265;-85
2021/06/12 07:35:15;;;;;;;14.73;10.70;;;;;;;;;;5003894;28;21833;-86
2021/06/12 07:37:43;;;;;;;13.07;11.05;;;;;;;;;;5009652;28;20188;-80
2021/06/12 07:40:09;;;;;;;15.02;10.68;;;;;;;;;;5005693;28;20204;-80
2021/06/12 07:42:34;;;;;;;12.27;10.90;;;;;;;;;;5008354;28;20667;-81
2021/06/12 07:44:59;;;;;;;12.80;10.23;;;;;;;;;;5007594;28;20184;-81
2021/06/12 07:47:25;;;;;;;14.45;11.35;;;;;;;;;;5004569;28;20193;-84
2021/06/12 07:49:50;;;;;;;14.63;11.10;;;;;;;;;;5005991;28;20191;-83
2021/06/12 07:52:18;;;;;;;15.13;10.38;;;;;;;;;;5014304;28;20207;-85
2021/06/12 07:54:43;;;;;;;17.15;11.45;;;;;;;;;;5014805;28;20187;-84
2021/06/12 07:57:09;;;;;;;15.40;11.50;;;;;;;;;;5018565;28;20206;-84
2021/06/12 07:59:34;;;;;;;14.13;11.82;;;;;;;;;;5000969;28;20172;-85
2021/06/12 08:02:00;;;;;;;14.40;11.43;;;;;;;;;;4995357;28;20223;-84
2021/06/12 08:04:26;;;;;;;17.05;11.52;;;;;;;;;;4980637;28;20207;-83
2021/06/12 08:06:52;;;;;;;12.50;11.20;;;;;;;;;;5016947;28;20253;-86
2021/06/12 08:09:18;;;;;;;15.45;11.93;;;;;;;;;;5020201;28;20179;-87
2021/06/12 08:11:46;;;;;;;13.73;10.95;;;;;;;;;;5015867;28;20206;-86
2021/06/12 08:14:12;;;;;;;15.55;10.93;;;;;;;;;;4989366;28;20223;-87
2021/06/12 08:16:37;;;;;;;14.20;11.45;;;;;;;;;;5000965;28;20183;-86
2021/06/12 08:19:02;;;;;;;13.27;10.32;;;;;;;;;;5001738;28;20186;-87
2021/06/12 08:21:28;;;;;;;14.43;11.45;;;;;;;;;;4999920;28;20211;-86
2021/06/12 08:23:53;;;;;;;15.48;11.40;;;;;;;;;;5017245;28;20242;-84
2021/06/12 08:26:19;;;;;;;17.45;11.05;;;;;;;;;;5010745;28;20187;-84
2021/06/12 08:28:46;;;;;;;12.77;11.30;;;;;;;;;;5016544;28;20199;-83
2021/06/12 08:31:12;;;;;;;15.23;12.25;;;;;;;;;;5017540;28;20670;-84
2021/06/12 08:33:37;;;;;;;16.33;11.95;;;;;;;;;;5013917;28;20266;-83
2021/06/12 08:36:03;;;;;;;14.30;11.63;;;;;;;;;;5016284;28;20278;-87
2021/06/12 08:38:30;;;;;;;13.40;11.40;;;;;;;;;;5016222;28;20194;-86
2021/06/12 08:40:57;;;;;;;13.85;11.23;;;;;;;;;;4997933;28;20450;-85
2021/06/12 08:43:26;;;;;;;14.00;10.02;;;;;;;;;;5007808;28;20186;-86
2021/06/12 08:45:55;;;;;;;11.48;10.27;;;;;;;;;;5032864;28;20194;-86
2021/06/12 08:48:25;;;;;;;15.77;10.68;;;;;;;;;;5031884;28;20594;-83
2021/06/12 08:50:53;;;;;;;12.32;9.93;;;;;;;;;;5005909;28;20195;-86
2021/06/12 08:53:18;;;;;;;12.93;11.52;;;;;;;;;;5009212;28;20208;-85
2021/06/12 08:55:46;;;;;;;12.93;11.52;;;;;;;;;;5010130;28;20233;-83
2021/06/12 08:58:12;;;;;;;14.57;10.63;;;;;;;;;;4993025;28;20625;-84
2021/06/12 09:00:37;;;;;;;12.65;10.90;;;;;;;;;;5010445;28;20206;-84
2021/06/12 09:03:03;;;;;;;12.35;11.05;;;;;;;;;;5012618;28;20229;-84
2021/06/12 09:05:38;;;;;;;12.52;10.13;;;;;;;;;;5012496;28;20281;-83
2021/06/12 09:08:07;;;;;;;14.00;10.48;;;;;;;;;;5016661;28;20665;-83
2021/06/12 09:10:33;;;;;;;11.13;9.90;;;;;;;;;;5017183;28;20303;-82
2021/06/12 09:13:00;;;;;;;10.77;8.88;;;;;;;;;;4991928;28;20290;-86
2021/06/12 09:15:26;;;;;;;11.18;9.60;;;;;;;;;;5011430;28;20234;-86
2021/06/12 09:17:51;;;;;;;9.07;8.20;;;;;;;;;;5015792;28;20546;-84
2021/06/12 09:20:41;;;;;;;10.45;8.63;;;;;;;;;;5007567;28;20207;-84
2021/06/12 09:23:18;;;;;;;12.13;7.50;;;;;;;;;;5007329;28;20284;-83
2021/06/12 09:25:49;;;;;;;9.65;8.43;;;;;;;;;;5013788;28;20217;-82
2021/06/12 09:28:15;;;;;;;11.60;8.02;;;;;;;;;;4996723;28;20187;-84
2021/06/12 09:30:41;;;;;;;8.77;7.88;;;;;;;;;;5013064;28;20836;-83
2021/06/12 09:33:06;;;;;;;10.95;7.18;;;;;;;;;;4993384;28;20746;-83
2021/06/12 09:35:41;;;;;;;9.55;7.75;;;;;;;;;;5014930;28;20175;-83
2021/06/12 09:38:29;;;;;;;8.70;7.80;;;;;;;;;;5013808;28;20257;-82
2021/06/12 09:40:56;;;;;;;9.48;8.07;;;;;;;;;;5007146;28;20565;-80
2021/06/12 09:43:31;;;;;;;12.98;8.90;;;;;;;;;;5006721;28;20226;-80
2021/06/12 09:46:00;;;;;;;9.45;7.82;;;;;;;;;;5005811;28;20266;-79
2021/06/12 09:48:25;;;;;;;8.32;7.13;;;;;;;;;;4988763;28;20636;-79
2021/06/12 09:51:15;;;;;;;9.13;7.13;;;;;;;;;;5005638;28;20211;-79
2021/06/12 09:53:49;;;;;;;8.10;7.18;;;;;;;;;;5005993;28;20194;-80
2021/06/12 09:56:14;;;;;;;8.85;6.47;;;;;;;;;;5008240;28;20274;-80
2021/06/12 09:58:39;;;;;;;7.55;6.70;;;;;;;;;;5008518;28;20652;-80
2021/06/12 10:01:12;;;;;;;7.00;5.78;;;;;;;;;;5008212;28;20234;-80
2021/06/12 10:03:38;;;;;;;6.38;5.70;;;;;;;;;;5007758;28;20591;-80
2021/06/12 10:06:23;;;;;;;7.43;6.38;;;;;;;;;;5007978;28;20191;-78
2021/06/12 10:08:51;;;;;;;9.38;6.43;;;;;;;;;;5007050;28;20269;-80
2021/06/12 10:11:18;;;;;;;7.80;7.03;;;;;;;;;;5006790;28;20183;-79
2021/06/12 10:13:45;;;;;;;9.40;6.53;;;;;;;;;;5003664;28;20571;-80
2021/06/12 10:16:12;;;;;;;7.55;6.78;;;;;;;;;;5009563;28;20179;-80
2021/06/12 10:18:43;;;;;;;7.38;6.20;;;;;;;;;;5010848;28;20717;-80
2021/06/12 10:21:12;;;;;;;7.97;7.18;;;;;;;;;;5008414;28;20235;-79
2021/06/12 10:23:38;;;;;;;6.53;5.88;;;;;;;;;;5012099;28;20218;-80
2021/06/12 10:26:05;;;;;;;9.27;6.10;;;;;;;;;;5011673;28;20222;-77
2021/06/12 10:28:30;;;;;;;6.65;5.95;;;;;;;;;;5011654;28;20666;-80
2021/06/12 10:30:56;;;;;;;7.32;5.60;;;;;;;;;;5002762;28;20184;-81
2021/06/12 10:33:22;;;;;;;6.40;5.57;;;;;;;;;;5003238;28;20759;-80
2021/06/12 10:35:47;;;;;;;7.18;4.85;;;;;;;;;;5008070;28;20274;-79
2021/06/12 10:38:16;;;;;;;5.95;5.32;;;;;;;;;;5011136;28;20678;-80
2021/06/12 10:40:48;;;;;;;8.20;4.93;;;;;;;;;;5008826;28;20559;-79
2021/06/12 10:43:18;;;;;;;5.93;5.32;;;;;;;;;;5009150;28;20245;-80
2021/06/12 10:45:48;;;;;;;5.40;4.90;;;;;;;;;;5010060;28;20613;-80
2021/06/12 10:48:39;;;;;;;6.50;5.88;;;;;;;;;;5008960;28;20191;-80
2021/06/12 10:51:10;;;;;;;6.75;5.93;;;;;;;;;;5005767;28;20604;-80
2021/06/12 10:53:37;;;;;;;8.00;6.60;;;;;;;;;;5009996;28;20174;-80
2021/06/12 10:56:08;;;;;;;8.77;5.80;;;;;;;;;;5010500;28;20198;-80
2021/06/12 10:58:39;;;;;;;12.95;6.82;;;;;;;;;;5009419;28;20245;-80
2021/06/12 11:01:17;;;;;;;14.18;6.55;;;;;;;;;;5010532;28;20465;-79
2021/06/12 11:06:42;;;;;;;9.45;6.68;;;;;;;;;;5011291;28;20183;-79
2021/06/12 11:09:13;;;;;;;6.75;6.15;;;;;;;;;;5008899;28;20179;-79
2021/06/12 11:11:57;;;;;;;6.75;6.00;;;;;;;;;;5007829;28;20633;-79
2021/06/12 11:14:25;;;;;;;7.20;6.05;;;;;;;;;;4991176;28;20675;-81
2021/06/12 11:17:06;;;;;;;6.70;6.07;;;;;;;;;;5010224;28;20195;-85
2021/06/12 11:19:44;;;;;;;7.07;6.38;;;;;;;;;;5013339;28;20675;-82
2021/06/12 11:22:38;;;;;;;7.10;6.40;;;;;;;;;;5006195;28;20717;-83
2021/06/12 11:25:13;;;;;;;8.75;7.20;;;;;;;;;;5004068;28;20195;-82
2021/06/12 11:27:47;;;;;;;8.38;6.70;;;;;;;;;;4997230;28;20187;-82
2021/06/12 11:30:18;;;;;;;7.78;6.70;;;;;;;;;;5008780;28;20179;-82
2021/06/12 11:32:58;;;;;;;7.97;6.97;;;;;;;;;;5008540;28;20207;-81
2021/06/12 11:35:52;;;;;;;9.82;8.63;;;;;;;;;;5007318;28;20187;-82
2021/06/12 11:38:37;;;;;;;9.95;8.32;;;;;;;;;;5011559;28;20187;-80
2021/06/12 11:41:13;;;;;;;10.18;8.25;;;;;;;;;;5010155;28;20608;-81
2021/06/12 11:43:44;;;;;;;9.00;8.10;;;;;;;;;;5009889;28;20194;-80
2021/06/12 11:46:17;;;;;;;9.93;7.80;;;;;;;;;;5010912;28;20936;-80
2021/06/12 11:48:48;;;;;;;10.38;8.18;;;;;;;;;;5011411;28;20203;-80
2021/06/12 11:51:19;;;;;;;9.90;8.27;;;;;;;;;;5010283;28;20187;-80
2021/06/12 11:54:18;;;;;;;9.05;7.78;;;;;;;;;;4993887;28;20216;-81
2021/06/12 11:56:51;;;;;;;11.38;7.78;;;;;;;;;;5009854;28;20184;-81
2021/06/12 11:59:20;;;;;;;7.93;7.00;;;;;;;;;;5011388;28;20583;-80
2021/06/12 12:01:47;;;;;;;10.32;6.20;;;;;;;;;;5012141;28;20683;-82
2021/06/12 12:04:20;;;;;;;4.57;3.55;;;;;;;;;;5010616;28;20183;-80
2021/06/12 12:06:55;;;;;;;9.65;3.67;;;;;;;;;;5010228;28;20191;-80
2021/06/12 12:09:44;;;;;;;6.80;3.13;;;;;;;;;;5013633;28;20395;-84
2021/06/12 12:12:15;;;;;;;3.30;3.00;;;;;;;;;;5014523;28;20274;-81
2021/06/12 12:14:42;;;;;;;7.25;3.50;;;;;;;;;;5011093;28;20191;-80
2021/06/12 12:17:27;;;;;;;5.95;3.58;;;;;;;;;;5015632;28;20179;-79
2021/06/12 12:19:57;;;;;;;5.03;3.75;;;;;;;;;;5004663;28;20210;-79
2021/06/12 12:22:49;;;;;;;4.72;3.78;;;;;;;;;;5010428;28;20218;-80
2021/06/12 12:25:22;;;;;;;5.47;4.35;;;;;;;;;;5004062;28;20187;-80
2021/06/12 12:27:59;;;;;;;8.45;3.92;;;;;;;;;;5011934;28;20187;-85
2021/06/12 12:30:25;;;;;;;6.28;3.40;;;;;;;;;;5015827;28;20217;-83
2021/06/12 12:32:52;;;;;;;9.50;3.83;;;;;;;;;;5016107;28;20203;-82
2021/06/12 12:35:18;;;;;;;5.13;3.05;;;;;;;;;;5015618;28;20667;-83
2021/06/12 12:37:46;;;;;;;5.22;3.08;;;;;;;;;;5012488;28;20205;-84
2021/06/12 12:40:17;;;;;;;4.43;3.03;;;;;;;;;;5013231;28;20251;-85
2021/06/12 12:42:45;;;;;;;11.10;3.70;;;;;;;;;;5013918;28;20821;-86
2021/06/12 12:45:13;;;;;;;6.43;3.55;;;;;;;;;;5010997;28;20337;-85
2021/06/12 12:47:38;;;;;;;4.55;3.65;;;;;;;;;;4992673;28;20195;-84
2021/06/12 12:50:05;;;;;;;6.38;3.40;;;;;;;;;;5007084;28;20213;-85
2021/06/12 12:52:31;;;;;;;6.72;3.88;;;;;;;;;;4994315;28;20215;-85
2021/06/12 12:55:02;;;;;;;7.72;3.80;;;;;;;;;;5009962;28;20303;-82
2021/06/12 12:57:49;;;;;;;3.97;3.10;;;;;;;;;;5009509;28;20262;-82
2021/06/12 13:00:16;;;;;;;9.50;3.28;;;;;;;;;;5008948;28;20283;-82
2021/06/12 13:02:43;;;;;;;7.32;3.25;;;;;;;;;;5013834;28;20270;-82
2021/06/12 13:05:13;;;;;;;5.97;2.90;;;;;;;;;;5013513;28;20241;-83
2021/06/12 13:07:39;;;;;;;10.23;3.55;;;;;;;;;;5013094;28;20610;-81
2021/06/12 13:10:09;;;;;;;4.78;3.38;;;;;;;;;;5009503;28;20183;-81
2021/06/12 13:12:34;;;;;;;5.28;3.55;;;;;;;;;;5010868;28;20203;-81
2021/06/12 13:15:03;;;;;;;4.88;2.85;;;;;;;;;;5010021;28;20777;-82
2021/06/12 13:17:30;;;;;;;4.90;2.60;;;;;;;;;;5012891;28;20199;-81
2021/06/12 13:19:59;;;;;;;5.80;2.65;;;;;;;;;;4978700;28;20291;-82
2021/06/12 13:22:26;;;;;;;4.63;3.05;;;;;;;;;;5004803;28;20741;-81
2021/06/12 13:25:02;;;;;;;7.00;2.78;;;;;;;;;;5008756;28;20255;-82
2021/06/12 13:27:50;;;;;;;4.93;2.88;;;;;;;;;;5011406;28;20733;-80
2021/06/12 13:30:22;;;;;;;4.90;2.58;;;;;;;;;;4990782;28;20221;-81
2021/06/12 13:32:47;;;;;;;3.83;2.70;;;;;;;;;;5003802;28;20230;-80
2021/06/12 13:35:38;;;;;;;8.00;2.80;;;;;;;;;;5006158;28;20427;-80
2021/06/12 13:38:06;;;;;;;3.78;2.67;;;;;;;;;;5006669;28;20534;-79
2021/06/12 13:40:33;;;;;;;6.60;2.65;;;;;;;;;;5007629;28;20210;-81
2021/06/12 13:42:58;;;;;;;7.72;3.15;;;;;;;;;;5008458;28;20214;-79
2021/06/12 13:45:24;;;;;;;5.43;2.97;;;;;;;;;;5007419;28;20191;-79
2021/06/12 13:47:49;;;;;;;6.20;2.70;;;;;;;;;;5008842;28;20194;-80
2021/06/12 13:50:17;;;;;;;9.40;2.65;;;;;;;;;;5002843;28;20199;-79
2021/06/12 13:52:47;;;;;;;4.53;2.50;;;;;;;;;;5008323;28;20246;-79
2021/06/12 13:55:13;;;;;;;4.40;2.60;;;;;;;;;;5010563;28;20210;-79
2021/06/12 13:57:44;;;;;;;8.13;2.55;;;;;;;;;;5009771;28;20241;-80
2021/06/12 14:00:10;;;;;;;7.47;2.30;;;;;;;;;;5009102;28;20194;-80
2021/06/12 14:02:35;;;;;;;5.70;2.58;;;;;;;;;;5012017;28;20207;-80
2021/06/12 14:05:01;;;;;;;6.20;2.70;;;;;;;;;;5011455;28;20553;-80
2021/06/12 14:07:29;;;;;;;4.45;2.50;;;;;;;;;;5005572;28;20569;-80
2021/06/12 14:09:54;;;;;;;5.18;2.13;;;;;;;;;;5005662;28;20790;-80
2021/06/12 14:12:21;;;;;;;3.83;2.00;;;;;;;;;;5009916;28;20288;-79
2021/06/12 14:14:47;;;;;;;3.60;2.08;;;;;;;;;;5011523;28;20171;-79
2021/06/12 14:17:14;;;;;;;7.53;2.50;;;;;;;;;;5009565;28;20530;-80
2021/06/12 14:19:44;;;;;;;7.10;2.35;;;;;;;;;;5009943;28;20698;-80
2021/06/12 14:22:10;;;;;;;5.43;2.20;;;;;;;;;;5001429;28;20227;-79
2021/06/12 14:24:35;;;;;;;3.10;1.83;;;;;;;;;;5010917;28;20470;-80
2021/06/12 14:27:02;;;;;;;10.70;2.70;;;;;;;;;;5011183;28;20664;-79
2021/06/12 14:29:31;;;;;;;5.43;1.90;;;;;;;;;;5009456;28;20191;-79
2021/06/12 14:31:56;;;;;;;5.22;1.90;;;;;;;;;;5008610;28;20207;-79
2021/06/12 14:34:21;;;;;;;5.10;2.10;;;;;;;;;;5009853;28;20195;-80
2021/06/12 14:36:47;;;;;;;4.05;1.85;;;;;;;;;;5007948;28;20198;-79
2021/06/12 14:39:12;;;;;;;3.17;1.80;;;;;;;;;;5008637;28;20668;-79
2021/06/12 14:41:43;;;;;;;5.47;2.03;;;;;;;;;;5008810;28;20657;-79
2021/06/12 14:44:12;;;;;;;6.25;1.95;;;;;;;;;;4992682;28;20642;-80
2021/06/12 14:46:38;;;;;;;5.88;2.00;;;;;;;;;;5010741;28;20187;-79